»·PEaware :: N2506 KVNY-KSBD

N2506 :: KVNY-KSBD

FLIGHT INFORMATION

Flight Status: Arrived
Operator: Privately registered:
United States
More flights under this callsign
Pilot: Daniel L. (32547)
Aircraft: CESSNA 208 CARAVAN
(C208)
More flights by this aircraft type
Origin: KVNY Van Nuys
United States
Destination: KSBD San Bernardino Intl
United States
More flights between these airports :: More routes between these airports
Route: ADAMM3 ADAMM V186 PDZ
File this flight plan on PilotEdge
Remarks: TEC ROUTE BURP8 *** SPEAK SLOW FOR INSTRUCTIONS ***
Altitude:
(Current/Filed)
5,000ft
Speed:
(Current/Filed)
170kts
Departed: 14-Feb-21 01:04 PM
Arrived: 14-Feb-21 01:36 PM
Distance/Time
Traveled:
6795nm/0:32
Distance/Time
To Go:
Arrived

Flight Plot

Page will automatically refresh every two minutes.

Flight plan parsing failed; only flown route is shown


Map Options




Map Legend


Flown Route
Filed Route
Departure Airport
Arrival Airport
Navaid (VOR, NDB)
Fix

Horizontal Profiles

Position Reports

Time Latitude Longitude Heading Altitude Ground
Speed
14-Feb-21 12:45 34.216347 -118.495355 117 804ft 0kts
14-Feb-21 12:46 34.216347 -118.495355 117 804ft 0kts
14-Feb-21 12:47 34.216347 -118.495355 117 804ft 0kts
14-Feb-21 12:48 34.216347 -118.495355 117 804ft 0kts
14-Feb-21 12:49 34.216347 -118.495355 117 804ft 0kts
14-Feb-21 12:50 34.216347 -118.495355 117 804ft 0kts
14-Feb-21 12:51 34.216347 -118.495355 117 804ft 0kts
14-Feb-21 12:52 34.216347 -118.495355 117 804ft 0kts
14-Feb-21 12:53 34.216347 -118.495355 117 804ft 0kts
14-Feb-21 12:54 34.216347 -118.495355 117 804ft 0kts
14-Feb-21 12:55 34.216347 -118.495355 117 804ft 0kts
14-Feb-21 12:56 34.216778 -118.493300 89 802ft 12kts
14-Feb-21 12:57 34.213970 -118.491957 172 794ft 0kts
14-Feb-21 12:58 34.209653 -118.491578 174 790ft 25kts
14-Feb-21 12:59 34.203468 -118.491021 172 768ft 22kts
14-Feb-21 13:00 34.197541 -118.490128 174 755ft 2kts
14-Feb-21 13:01 34.197130 -118.489936 102 754ft 0kts
14-Feb-21 13:02 34.197314 -118.489342 14 754ft 8kts
14-Feb-21 13:03 34.213570 -118.491161 352 1303ft 71kts
14-Feb-21 13:04 34.227030 -118.509213 267 2140ft 115kts
14-Feb-21 13:05 34.225550 -118.546813 265 3666ft 89kts
14-Feb-21 13:06 34.218182 -118.555581 82 4821ft 101kts
14-Feb-21 13:07 34.228462 -118.511449 73 5041ft 169kts
14-Feb-21 13:08 34.213411 -118.457388 116 4994ft 176kts
14-Feb-21 13:09 34.195259 -118.403124 101 4992ft 176kts
14-Feb-21 13:10 34.179719 -118.347320 112 4993ft 175kts
14-Feb-21 13:11 34.161394 -118.292693 112 4993ft 175kts
14-Feb-21 13:12 34.137787 -118.241384 116 4997ft 176kts
14-Feb-21 13:13 34.117124 -118.187916 115 4994ft 175kts
14-Feb-21 13:14 34.100921 -118.140577 115 4993ft 175kts
14-Feb-21 13:15 34.083229 -118.089199 109 4995ft 175kts
14-Feb-21 13:16 34.067339 -118.034196 111 4995ft 175kts
14-Feb-21 13:17 34.054747 -117.991682 109 4996ft 175kts
14-Feb-21 13:18 34.039846 -117.941192 110 4996ft 175kts
14-Feb-21 13:19 34.023766 -117.886492 110 4998ft 174kts
14-Feb-21 13:20 34.007690 -117.832277 110 4995ft 174kts
14-Feb-21 13:21 33.994812 -117.776609 74 4992ft 176kts
14-Feb-21 13:22 34.007488 -117.725653 73 4996ft 176kts
14-Feb-21 13:23 34.021910 -117.670528 72 4995ft 176kts
14-Feb-21 13:24 34.036722 -117.614206 72 4996ft 176kts
14-Feb-21 13:25 34.051576 -117.557863 72 4996ft 176kts
14-Feb-21 13:26 34.064934 -117.501166 79 4996ft 176kts
14-Feb-21 13:28 34.064726 -117.442727 92 4767ft 170kts
14-Feb-21 13:29 34.065357 -117.387448 83 3657ft 161kts
14-Feb-21 13:30 34.072342 -117.335181 80 2576ft 159kts
14-Feb-21 13:31 34.079022 -117.289457 80 2109ft 120kts
14-Feb-21 13:32 34.085079 -117.251486 76 2100ft 112kts
14-Feb-21 13:33 34.093985 -117.215192 75 2110ft 119kts
14-Feb-21 13:34 34.106096 -117.184648 344 2091ft 106kts
14-Feb-21 13:35 34.102208 -117.212133 248 1327ft 78kts
14-Feb-21 13:36 34.096123 -117.230855 260 1141ft 38kts
14-Feb-21 13:37 34.096191 -117.236345 320 1129ft 0kts
14-Feb-21 13:38 34.096191 -117.236345 320 1129ft 0kts
14-Feb-21 13:39 34.096328 -117.236426 346 1128ft 5kts
14-Feb-21 13:40 34.098218 -117.231430 70 1141ft 28kts
14-Feb-21 13:40 34.100996 -117.225860 74 1155ft 15kts
14-Feb-21 13:42 0.000408 0.013975 0 7ft 0kts

Navigation Log

Ident Type
Flight plan parsing failed, navigation log unavailable